sensor_id;sensor_type;location;lat;lon;timestamp;pressure;altitude;pressure_sealevel;temperature;humidity
62111;BME280;48102;47.526;19.072;2022-12-05T04:41:12;101129.06;;;4.28;100.00
62111;BME280;48102;47.526;19.072;2022-12-05T04:44:20;101127.38;;;4.24;100.00
62111;BME280;48102;47.526;19.072;2022-12-05T04:47:27;101128.19;;;4.29;100.00
62111;BME280;48102;47.526;19.072;2022-12-05T04:50:37;101124.63;;;4.35;100.00
62111;BME280;48102;47.526;19.072;2022-12-05T04:53:41;101116.81;;;4.36;100.00
62111;BME280;48102;47.526;19.072;2022-12-05T04:56:47;101128.91;;;4.42;100.00
62111;BME280;48102;47.526;19.072;2022-12-05T04:59:51;101110.63;;;4.45;100.00
62111;BME280;48102;47.526;19.072;2022-12-05T05:02:59;101107.97;;;4.46;100.00
62111;BME280;48102;47.526;19.072;2022-12-05T05:06:06;101104.41;;;4.53;100.00
62111;BME280;48102;47.526;19.072;2022-12-05T05:09:09;101107.03;;;4.53;100.00
62111;BME280;48102;47.526;19.072;2022-12-05T05:12:12;101113.94;;;4.56;100.00
62111;BME280;48102;47.526;19.072;2022-12-05T05:15:22;101099.16;;;4.55;100.00
62111;BME280;48102;47.526;19.072;2022-12-05T05:18:25;101103.47;;;4.58;100.00
62111;BME280;48102;47.526;19.072;2022-12-05T05:24:32;101113.03;;;4.57;100.00
62111;BME280;48102;47.526;19.072;2022-12-05T05:27:35;101112.13;;;4.63;100.00
62111;BME280;48102;47.526;19.072;2022-12-05T05:30:38;101126.94;;;4.59;100.00
62111;BME280;48102;47.526;19.072;2022-12-05T05:33:40;101130.47;;;4.58;100.00
62111;BME280;48102;47.526;19.072;2022-12-05T05:36:43;101140.78;;;4.66;100.00
62111;BME280;48102;47.526;19.072;2022-12-05T05:39:46;101131.19;;;4.68;100.00
62111;BME280;48102;47.526;19.072;2022-12-05T05:42:49;101132.03;;;4.70;100.00
62111;BME280;48102;47.526;19.072;2022-12-05T05:45:52;101133.75;;;4.72;100.00
62111;BME280;48102;47.526;19.072;2022-12-05T05:48:55;101126.81;;;4.70;100.00
62111;BME280;48102;47.526;19.072;2022-12-05T05:51:59;101132.91;;;4.69;100.00
62111;BME280;48102;47.526;19.072;2022-12-05T05:55:02;101136.41;;;4.68;100.00
62111;BME280;48102;47.526;19.072;2022-12-05T05:58:05;101137.94;;;4.83;100.00
62111;BME280;48102;47.526;19.072;2022-12-05T06:01:18;101140.50;;;4.87;100.00
62111;BME280;48102;47.526;19.072;2022-12-05T06:04:24;101137.97;;;4.81;100.00
62111;BME280;48102;47.526;19.072;2022-12-05T06:07:27;101134.59;;;4.73;100.00
62111;BME280;48102;47.526;19.072;2022-12-05T06:10:30;101139.78;;;4.76;100.00
62111;BME280;48102;47.526;19.072;2022-12-05T06:13:33;101135.47;;;4.73;100.00
62111;BME280;48102;47.526;19.072;2022-12-05T06:16:36;101149.34;;;4.77;100.00
62111;BME280;48102;47.526;19.072;2022-12-05T06:19:38;101146.69;;;4.78;100.00
62111;BME280;48102;47.526;19.072;2022-12-05T06:22:42;101156.34;;;4.75;100.00
62111;BME280;48102;47.526;19.072;2022-12-05T06:25:49;101175.50;;;4.75;100.00
62111;BME280;48102;47.526;19.072;2022-12-05T06:28:52;101153.69;;;4.80;100.00
62111;BME280;48102;47.526;19.072;2022-12-05T06:31:55;101157.16;;;4.80;100.00
62111;BME280;48102;47.526;19.072;2022-12-05T06:34:57;101164.81;;;4.92;100.00
62111;BME280;48102;47.526;19.072;2022-12-05T06:38:00;101160.53;;;4.87;100.00
62111;BME280;48102;47.526;19.072;2022-12-05T06:41:05;101165.75;;;4.88;100.00
62111;BME280;48102;47.526;19.072;2022-12-05T06:44:08;101160.53;;;4.88;100.00
62111;BME280;48102;47.526;19.072;2022-12-05T06:47:11;101161.31;;;4.93;100.00
62111;BME280;48102;47.526;19.072;2022-12-05T06:50:13;101157.72;;;5.00;100.00
62111;BME280;48102;47.526;19.072;2022-12-05T06:53:17;101163.81;;;5.02;100.00
62111;BME280;48102;47.526;19.072;2022-12-05T06:56:20;101170.47;;;5.22;100.00
62111;BME280;48102;47.526;19.072;2022-12-05T06:59:23;101172.37;;;5.12;100.00
62111;BME280;48102;47.526;19.072;2022-12-05T07:02:26;101174.16;;;5.09;100.00
62111;BME280;48102;47.526;19.072;2022-12-05T07:05:29;101178.53;;;5.08;100.00
62111;BME280;48102;47.526;19.072;2022-12-05T07:08:32;101179.31;;;5.13;100.00
62111;BME280;48102;47.526;19.072;2022-12-05T07:11:35;101187.13;;;5.16;100.00
62111;BME280;48102;47.526;19.072;2022-12-05T07:14:38;101187.97;;;5.18;100.00
62111;BME280;48102;47.526;19.072;2022-12-05T07:17:50;101193.91;;;5.31;100.00
62111;BME280;48102;47.526;19.072;2022-12-05T07:21:07;101194.75;;;5.32;100.00
62111;BME280;48102;47.526;19.072;2022-12-05T07:24:15;101195.72;;;5.24;100.00
62111;BME280;48102;47.526;19.072;2022-12-05T07:27:17;101191.22;;;5.34;100.00
62111;BME280;48102;47.526;19.072;2022-12-05T07:30:28;101199.91;;;5.35;100.00
62111;BME280;48102;47.526;19.072;2022-12-05T07:33:31;101196.31;;;5.43;100.00
62111;BME280;48102;47.526;19.072;2022-12-05T07:36:34;101198.12;;;5.40;100.00
62111;BME280;48102;47.526;19.072;2022-12-05T07:39:36;101199.81;;;5.42;100.00
62111;BME280;48102;47.526;19.072;2022-12-05T07:42:39;101202.31;;;5.50;100.00
62111;BME280;48102;47.526;19.072;2022-12-05T07:45:42;101215.22;;;5.61;100.00
62111;BME280;48102;47.526;19.072;2022-12-05T07:48:46;101209.13;;;5.62;100.00
62111;BME280;48102;47.526;19.072;2022-12-05T07:51:49;101216.00;;;5.67;100.00
62111;BME280;48102;47.526;19.072;2022-12-05T07:54:52;101210.63;;;5.76;100.00
62111;BME280;48102;47.526;19.072;2022-12-05T07:57:54;101213.06;;;5.87;100.00
62111;BME280;48102;47.526;19.072;2022-12-05T08:01:09;101225.28;;;5.85;100.00
62111;BME280;48102;47.526;19.072;2022-12-05T08:04:13;101215.66;;;5.92;100.00
62111;BME280;48102;47.526;19.072;2022-12-05T08:07:18;101209.41;;;5.99;100.00
62111;BME280;48102;47.526;19.072;2022-12-05T08:10:21;101207.72;;;5.96;100.00
62111;BME280;48102;47.526;19.072;2022-12-05T08:13:23;101219.16;;;5.88;100.00
62111;BME280;48102;47.526;19.072;2022-12-05T08:16:28;101219.09;;;5.91;100.00
62111;BME280;48102;47.526;19.072;2022-12-05T08:19:31;101223.44;;;5.93;100.00
62111;BME280;48102;47.526;19.072;2022-12-05T08:22:34;101222.41;;;6.05;100.00
62111;BME280;48102;47.526;19.072;2022-12-05T08:25:37;101230.37;;;5.97;100.00
62111;BME280;48102;47.526;19.072;2022-12-05T08:28:40;101227.63;;;6.05;100.00
62111;BME280;48102;47.526;19.072;2022-12-05T08:31:45;101223.09;;;6.15;100.00
62111;BME280;48102;47.526;19.072;2022-12-05T08:34:51;101224.75;;;6.19;100.00
62111;BME280;48102;47.526;19.072;2022-12-05T08:37:54;101229.22;;;6.12;100.00
62111;BME280;48102;47.526;19.072;2022-12-05T08:41:01;101231.81;;;6.15;100.00
62111;BME280;48102;47.526;19.072;2022-12-05T08:44:05;101241.22;;;6.25;100.00
62111;BME280;48102;47.526;19.072;2022-12-05T08:47:08;101230.75;;;6.25;100.00
62111;BME280;48102;47.526;19.072;2022-12-05T08:50:10;101224.66;;;6.25;100.00
62111;BME280;48102;47.526;19.072;2022-12-05T08:53:13;101228.22;;;6.21;100.00
62111;BME280;48102;47.526;19.072;2022-12-05T08:56:16;101225.47;;;6.28;100.00
62111;BME280;48102;47.526;19.072;2022-12-05T08:59:27;101223.63;;;6.34;100.00
62111;BME280;48102;47.526;19.072;2022-12-05T09:02:30;101229.56;;;6.42;100.00
62111;BME280;48102;47.526;19.072;2022-12-05T09:05:33;101232.78;;;6.58;100.00
62111;BME280;48102;47.526;19.072;2022-12-05T09:08:37;101230.53;;;6.38;100.00
62111;BME280;48102;47.526;19.072;2022-12-05T09:11:42;101234.81;;;6.42;100.00
62111;BME280;48102;47.526;19.072;2022-12-05T09:14:48;101234.72;;;6.48;100.00
62111;BME280;48102;47.526;19.072;2022-12-05T09:17:51;101219.78;;;6.51;100.00
62111;BME280;48102;47.526;19.072;2022-12-05T09:20:53;101219.69;;;6.58;100.00
62111;BME280;48102;47.526;19.072;2022-12-05T09:23:58;101215.97;;;6.69;100.00
62111;BME280;48102;47.526;19.072;2022-12-05T09:27:00;101213.75;;;6.93;100.00
62111;BME280;48102;47.526;19.072;2022-12-05T09:30:04;101206.84;;;6.89;100.00
62111;BME280;48102;47.526;19.072;2022-12-05T09:33:07;101218.94;;;6.96;100.00
62111;BME280;48102;47.526;19.072;2022-12-05T09:36:16;101206.59;;;7.01;100.00
62111;BME280;48102;47.526;19.072;2022-12-05T09:39:19;101205.22;;;7.23;100.00
62111;BME280;48102;47.526;19.072;2022-12-05T09:45:53;101206.22;;;7.18;100.00
62111;BME280;48102;47.526;19.072;2022-12-05T09:49:03;101205.44;;;7.14;100.00
62111;BME280;48102;47.526;19.072;2022-12-05T09:52:09;101201.19;;;7.09;100.00
62111;BME280;48102;47.526;19.072;2022-12-05T09:55:18;101204.72;;;7.06;100.00
62111;BME280;48102;47.526;19.072;2022-12-05T09:58:46;101197.16;;;6.91;100.00
62111;BME280;48102;47.526;19.072;2022-12-05T10:04:58;101190.41;;;6.81;100.00
62111;BME280;48102;47.526;19.072;2022-12-05T10:08:20;101185.13;;;6.84;100.00
62111;BME280;48102;47.526;19.072;2022-12-05T10:11:34;101185.13;;;6.84;100.00
62111;BME280;48102;47.526;19.072;2022-12-05T10:14:56;101184.97;;;6.91;100.00
62111;BME280;48102;47.526;19.072;2022-12-05T10:21:33;101174.03;;;7.11;100.00
62111;BME280;48102;47.526;19.072;2022-12-05T10:24:44;101180.72;;;7.24;100.00
62111;BME280;48102;47.526;19.072;2022-12-05T10:27:57;101173.75;;;7.23;100.00
62111;BME280;48102;47.526;19.072;2022-12-05T10:31:06;101165.09;;;7.21;100.00
62111;BME280;48102;47.526;19.072;2022-12-05T10:34:15;101170.94;;;7.33;100.00
62111;BME280;48102;47.526;19.072;2022-12-05T10:37:21;101163.56;;;7.48;100.00
62111;BME280;48102;47.526;19.072;2022-12-05T10:40:26;101158.78;;;7.66;100.00
62111;BME280;48102;47.526;19.072;2022-12-05T10:43:35;101147.69;;;7.89;100.00
62111;BME280;48102;47.526;19.072;2022-12-05T10:46:41;101152.19;;;8.18;100.00
62111;BME280;48102;47.526;19.072;2022-12-05T10:49:44;101148.41;;;8.28;100.00
62111;BME280;48102;47.526;19.072;2022-12-05T10:52:50;101137.66;;;8.39;100.00
62111;BME280;48102;47.526;19.072;2022-12-05T10:55:54;101139.03;;;8.50;100.00
62111;BME280;48102;47.526;19.072;2022-12-05T10:59:22;101125.69;;;8.58;100.00
62111;BME280;48102;47.526;19.072;2022-12-05T11:02:28;101133.62;;;8.57;100.00
62111;BME280;48102;47.526;19.072;2022-12-05T11:05:34;101134.50;;;8.57;100.00
62111;BME280;48102;47.526;19.072;2022-12-05T11:08:37;101137.91;;;8.28;100.00
62111;BME280;48102;47.526;19.072;2022-12-05T11:15:44;101126.34;;;8.02;100.00
62111;BME280;48102;47.526;19.072;2022-12-05T11:18:53;101129.91;;;8.00;100.00
62111;BME280;48102;47.526;19.072;2022-12-05T11:21:57;101121.66;;;7.81;100.00
62111;BME280;48102;47.526;19.072;2022-12-05T11:25:00;101119.47;;;7.64;100.00
62111;BME280;48102;47.526;19.072;2022-12-05T11:28:34;101115.22;;;7.59;100.00
62111;BME280;48102;47.526;19.072;2022-12-05T11:31:37;101114.59;;;7.49;100.00
62111;BME280;48102;47.526;19.072;2022-12-05T11:34:45;101117.56;;;7.35;100.00
62111;BME280;48102;47.526;19.072;2022-12-05T11:38:00;101115.63;;;7.43;100.00
62111;BME280;48102;47.526;19.072;2022-12-05T11:44:26;101117.66;;;7.66;100.00
62111;BME280;48102;47.526;19.072;2022-12-05T11:51:20;101106.56;;;7.55;100.00
62111;BME280;48102;47.526;19.072;2022-12-05T12:08:33;101081.66;;;7.73;100.00
62111;BME280;48102;47.526;19.072;2022-12-05T12:18:51;101068.19;;;7.52;100.00
62111;BME280;48102;47.526;19.072;2022-12-05T12:25:42;101071.06;;;7.43;100.00
62111;BME280;48102;47.526;19.072;2022-12-05T12:35:56;101070.81;;;7.52;100.00
62111;BME280;48102;47.526;19.072;2022-12-05T12:42:27;101053.78;;;7.69;100.00
62111;BME280;48102;47.526;19.072;2022-12-05T12:46:01;101055.44;;;7.73;100.00
62111;BME280;48102;47.526;19.072;2022-12-05T12:52:51;101051.34;;;7.61;100.00
62111;BME280;48102;47.526;19.072;2022-12-05T13:02:55;101042.97;;;7.47;100.00
62111;BME280;48102;47.526;19.072;2022-12-05T13:06:27;101052.53;;;7.49;100.00
62111;BME280;48102;47.526;19.072;2022-12-05T13:09:35;101043.75;;;7.50;100.00
62111;BME280;48102;47.526;19.072;2022-12-05T13:12:41;101045.50;;;7.50;100.00
62111;BME280;48102;47.526;19.072;2022-12-05T13:15:52;101051.53;;;7.53;100.00
62111;BME280;48102;47.526;19.072;2022-12-05T13:18:56;101043.87;;;7.46;100.00
62111;BME280;48102;47.526;19.072;2022-12-05T13:21:59;101042.22;;;7.43;100.00
62111;BME280;48102;47.526;19.072;2022-12-05T13:25:03;101039.88;;;7.31;100.00
62111;BME280;48102;47.526;19.072;2022-12-05T13:28:18;101041.78;;;7.26;100.00
62111;BME280;48102;47.526;19.072;2022-12-05T13:31:42;101034.03;;;7.20;100.00
62111;BME280;48102;47.526;19.072;2022-12-05T13:34:47;101035.00;;;7.16;100.00
62111;BME280;48102;47.526;19.072;2022-12-05T13:37:51;101029.72;;;7.19;100.00
62111;BME280;48102;47.526;19.072;2022-12-05T13:41:13;101038.53;;;7.15;100.00
62111;BME280;48102;47.526;19.072;2022-12-05T13:44:43;101038.78;;;7.06;100.00
62111;BME280;48102;47.526;19.072;2022-12-05T13:51:04;101046.56;;;7.09;100.00
62111;BME280;48102;47.526;19.072;2022-12-05T13:54:15;101046.56;;;7.09;100.00
62111;BME280;48102;47.526;19.072;2022-12-05T13:57:52;101044.69;;;7.14;100.00
62111;BME280;48102;47.526;19.072;2022-12-05T14:04:58;101049.03;;;7.15;100.00
62111;BME280;48102;47.526;19.072;2022-12-05T14:11:33;101050.78;;;7.14;100.00
62111;BME280;48102;47.526;19.072;2022-12-05T14:24:56;101046.16;;;6.88;100.00
62111;BME280;48102;47.526;19.072;2022-12-05T14:35:26;101039.38;;;6.79;100.00
62111;BME280;48102;47.526;19.072;2022-12-05T14:38:32;101051.63;;;6.79;100.00
62111;BME280;48102;47.526;19.072;2022-12-05T14:41:36;101047.28;;;6.78;100.00
62111;BME280;48102;47.526;19.072;2022-12-05T14:44:39;101042.97;;;6.75;100.00
62111;BME280;48102;47.526;19.072;2022-12-05T14:47:56;101039.56;;;6.72;100.00
62111;BME280;48102;47.526;19.072;2022-12-05T14:51:01;101036.06;;;6.71;100.00
62111;BME280;48102;47.526;19.072;2022-12-05T14:54:24;101023.84;;;6.72;100.00
62111;BME280;48102;47.526;19.072;2022-12-05T14:57:28;101029.94;;;6.72;100.00
62111;BME280;48102;47.526;19.072;2022-12-05T15:00:32;101028.25;;;6.70;100.00
62111;BME280;48102;47.526;19.072;2022-12-05T15:03:38;101025.69;;;6.67;100.00
62111;BME280;48102;47.526;19.072;2022-12-05T15:06:49;101016.94;;;6.69;100.00
62111;BME280;48102;47.526;19.072;2022-12-05T15:13:04;101030.88;;;6.70;100.00
62111;BME280;48102;47.526;19.072;2022-12-05T15:16:15;101024.69;;;6.74;100.00
62111;BME280;48102;47.526;19.072;2022-12-05T15:19:24;101026.41;;;6.73;100.00
62111;BME280;48102;47.526;19.072;2022-12-05T15:22:34;101026.50;;;6.69;100.00
62111;BME280;48102;47.526;19.072;2022-12-05T15:25:38;101023.78;;;6.73;100.00
62111;BME280;48102;47.526;19.072;2022-12-05T15:28:56;101020.34;;;6.71;100.00
62111;BME280;48102;47.526;19.072;2022-12-05T15:32:03;101025.53;;;6.74;100.00
62111;BME280;48102;47.526;19.072;2022-12-05T15:35:10;101024.59;;;6.77;100.00
62111;BME280;48102;47.526;19.072;2022-12-05T15:38:23;101022.91;;;6.74;100.00
62111;BME280;48102;47.526;19.072;2022-12-05T15:41:32;101018.47;;;6.78;100.00
62111;BME280;48102;47.526;19.072;2022-12-05T15:44:35;101004.47;;;6.79;100.00
62111;BME280;48102;47.526;19.072;2022-12-05T15:47:41;101001.06;;;6.75;100.00
62111;BME280;48102;47.526;19.072;2022-12-05T15:50:50;101005.38;;;6.78;100.00
62111;BME280;48102;47.526;19.072;2022-12-05T15:54:03;100997.53;;;6.78;100.00
62111;BME280;48102;47.526;19.072;2022-12-05T15:57:38;100987.00;;;6.79;100.00
62111;BME280;48102;47.526;19.072;2022-12-05T16:00:45;100985.97;;;6.85;100.00
62111;BME280;48102;47.526;19.072;2022-12-05T16:07:14;100986.16;;;6.77;100.00
62111;BME280;48102;47.526;19.072;2022-12-05T16:10:17;100991.50;;;6.74;100.00
62111;BME280;48102;47.526;19.072;2022-12-05T16:13:27;100995.03;;;6.72;100.00
62111;BME280;48102;47.526;19.072;2022-12-05T16:16:33;101002.84;;;6.73;100.00
62111;BME280;48102;47.526;19.072;2022-12-05T16:19:37;101000.25;;;6.72;100.00
62111;BME280;48102;47.526;19.072;2022-12-05T16:22:46;101004.59;;;6.73;100.00
62111;BME280;48102;47.526;19.072;2022-12-05T16:25:49;100997.69;;;6.70;100.00
62111;BME280;48102;47.526;19.072;2022-12-05T16:28:58;100989.00;;;6.68;100.00
62111;BME280;48102;47.526;19.072;2022-12-05T16:32:04;100991.62;;;6.68;100.00
62111;BME280;48102;47.526;19.072;2022-12-05T16:38:32;100998.59;;;6.68;100.00
62111;BME280;48102;47.526;19.072;2022-12-05T16:41:36;100993.31;;;6.71;100.00
62111;BME280;48102;47.526;19.072;2022-12-05T16:47:54;101003.72;;;6.74;100.00
62111;BME280;48102;47.526;19.072;2022-12-05T16:54:12;101019.34;;;6.77;100.00
62111;BME280;48102;47.526;19.072;2022-12-05T16:57:15;101012.25;;;6.82;100.00
62111;BME280;48102;47.526;19.072;2022-12-05T17:00:19;101001.88;;;6.77;100.00
62111;BME280;48102;47.526;19.072;2022-12-05T17:03:22;101010.56;;;6.79;100.00
62111;BME280;48102;47.526;19.072;2022-12-05T17:06:36;100998.25;;;6.83;100.00
62111;BME280;48102;47.526;19.072;2022-12-05T17:09:40;101000.88;;;6.83;100.00
62111;BME280;48102;47.526;19.072;2022-12-05T17:12:46;100995.72;;;6.80;100.00
62111;BME280;48102;47.526;19.072;2022-12-05T17:15:49;100992.94;;;6.86;100.00
62111;BME280;48102;47.526;19.072;2022-12-05T17:18:53;100991.28;;;6.82;100.00
62111;BME280;48102;47.526;19.072;2022-12-05T17:21:55;100983.47;;;6.81;100.00
62111;BME280;48102;47.526;19.072;2022-12-05T17:24:58;100974.81;;;6.77;100.00
